Terminal Aerodrome Forecast
Issued by NWS

Home | Current Version | Previous Version | Text Only | Print | Product List | Glossary On
Versions: 1 2 3 4 5 6 7 8 9 10 11 12 13 14 15
000
FTUS43 KOAX 240729 AAA
TAFBFF
TAF AMD
KBFF 240729Z 2407/2506 05014KT 1SM -SN OVC007
      TEMPO 2407/2409 1/2SM SN VV004
     FM240900 01012KT 2SM -SN OVC010
     FM241800 33018G28KT 2SM -SN SCT007 OVC015=

USA.gov is the U.S. government's official web portal to all federal, state and local government web resources and services.